Auance, South Dakota
Current Conditions -  °F | °C
As of 8:55 AM on Tuesday 21 Oct 2014 (Local Time) from KPHP Reporting Station
Clear Clear  
Wind Chill: 64°   Ceiling: Unl
Heat Index: 64°   Visibility: 10mi
Dew Point: 47°   Wind: 8mph
Humidity: 54%   Direction: 180°S
Pressure: 29.84"   Gusts: NA
Location:  44.8511°N, 102.128°W
Report Text: KPHP 211455Z AUTO 18007KT 10SM CLR 18/08 A2984 RMK AO2 SLP095 T01780083 53002
Loading
Personal Weather Stations






























Interactive Weather Map New forecast layout! Learn more

10-Day Weather Forecast

Advertisements
Track Severe Weather on mobile